createdAt,value
2022-09-28T00:01:20.615Z,2.00
2022-09-28T00:03:49.851Z,1.57
2022-09-28T00:06:24.499Z,1.40
2022-09-28T00:08:52.151Z,2.03
2022-09-28T00:11:21.874Z,1.23
2022-09-28T00:13:52.313Z,1.00
2022-09-28T00:16:28.742Z,1.17
2022-09-28T00:18:56.204Z,0.80
2022-09-28T00:21:29.858Z,0.70
2022-09-28T00:24:15.822Z,0.67
2022-09-28T00:26:57.063Z,0.90
2022-09-28T00:29:32.665Z,1.17
2022-09-28T00:32:04.154Z,1.00
2022-09-28T00:34:37.070Z,1.13
2022-09-28T00:37:06.495Z,1.17
2022-09-28T00:39:35.689Z,1.10
2022-09-28T00:42:03.680Z,0.70
2022-09-28T00:44:42.980Z,0.90
2022-09-28T00:47:15.932Z,0.90
2022-09-28T00:50:29.514Z,0.80
2022-09-28T00:53:18.583Z,1.00
2022-09-28T00:55:55.947Z,0.90
2022-09-28T00:58:34.884Z,0.70
2022-09-28T01:01:02.411Z,0.70
2022-09-28T01:03:29.796Z,0.70
2022-09-28T01:06:00.108Z,0.67
2022-09-28T01:08:30.020Z,0.60
2022-09-28T01:10:59.499Z,0.70
2022-09-28T01:13:28.542Z,0.63
2022-09-28T01:16:26.977Z,0.57
2022-09-28T01:19:55.945Z,0.70
2022-09-28T01:22:34.918Z,0.60
2022-09-28T01:25:38.420Z,0.60
2022-09-28T01:28:26.577Z,0.50
2022-09-28T01:31:21.563Z,0.60
2022-09-28T01:34:05.441Z,0.70
2022-09-28T01:36:54.488Z,0.83
2022-09-28T01:39:30.830Z,1.80
2022-09-28T01:42:04.897Z,2.53
2022-09-28T01:44:39.752Z,2.97
2022-09-28T01:47:14.009Z,2.97
2022-09-28T01:49:59.603Z,3.30
2022-09-28T01:52:35.167Z,2.67
2022-09-28T01:55:29.222Z,3.00
2022-09-28T01:58:40.612Z,3.20
2022-09-28T02:01:17.919Z,3.00
2022-09-28T02:03:55.404Z,3.00
2022-09-28T02:06:31.984Z,3.80
2022-09-28T02:09:08.215Z,3.70
2022-09-28T02:11:48.710Z,2.90
2022-09-28T02:14:18.138Z,2.60
2022-09-28T02:16:50.601Z,2.50
2022-09-28T02:19:25.969Z,2.17
2022-09-28T02:22:08.066Z,2.07
2022-09-28T02:24:43.035Z,1.30
2022-09-28T02:27:42.939Z,1.37
2022-09-28T02:30:11.125Z,2.10
2022-09-28T02:32:42.667Z,1.90
2022-09-28T02:35:16.988Z,1.00
2022-09-28T02:37:45.996Z,1.40
2022-09-28T02:40:16.370Z,1.60
2022-09-28T02:42:52.880Z,1.40
2022-09-28T02:46:04.682Z,1.00
2022-09-28T02:49:20.783Z,1.20
2022-09-28T02:52:33.840Z,1.30
2022-09-28T02:55:40.865Z,1.40
2022-09-28T02:58:20.235Z,1.70
2022-09-28T03:01:29.761Z,1.83
2022-09-28T03:04:36.054Z,2.13
2022-09-28T03:07:30.026Z,1.40
2022-09-28T03:10:42.950Z,1.53
2022-09-28T03:13:11.504Z,1.40
2022-09-28T03:15:38.989Z,1.47
2022-09-28T03:18:06.210Z,1.73
2022-09-28T03:20:34.170Z,1.40
2022-09-28T03:25:49.403Z,1.50
2022-09-28T03:28:17.259Z,1.60
2022-09-28T03:30:44.512Z,1.30
2022-09-28T03:33:11.865Z,1.70
2022-09-28T03:35:39.237Z,1.30
2022-09-28T03:38:06.362Z,1.10
2022-09-28T03:40:37.397Z,1.37
2022-09-28T03:43:04.743Z,1.90
2022-09-28T03:45:32.036Z,1.23
2022-09-28T03:48:00.233Z,1.50
2022-09-28T03:50:27.471Z,1.20
2022-09-28T03:52:54.515Z,1.20
2022-09-28T03:55:21.772Z,0.90
2022-09-28T03:57:56.055Z,1.20
2022-09-28T04:00:23.933Z,0.80
2022-09-28T04:02:51.361Z,1.00
2022-09-28T04:05:18.424Z,0.90
2022-09-28T04:07:45.446Z,1.00
2022-09-28T04:10:12.517Z,1.00
2022-09-28T04:12:39.651Z,0.70
2022-09-28T04:15:07.474Z,1.10
2022-09-28T04:17:39.832Z,1.10
2022-09-28T04:20:11.399Z,0.90
2022-09-28T04:22:47.458Z,1.00
2022-09-28T04:25:14.666Z,7.67
2022-09-28T04:28:00.191Z,1.77
2022-09-28T04:30:27.484Z,1.33
2022-09-28T04:32:54.502Z,1.23
2022-09-28T04:35:21.628Z,1.10
2022-09-28T04:37:48.879Z,3.70
2022-09-28T04:40:16.402Z,11.30
2022-09-28T04:42:43.644Z,5.43
2022-09-28T04:45:11.141Z,12.37
2022-09-28T04:47:43.006Z,5.97
2022-09-28T04:50:19.469Z,1.77
2022-09-28T04:53:05.063Z,1.60
2022-09-28T04:55:32.702Z,4.50
2022-09-28T04:58:03.555Z,2.50
2022-09-28T05:00:33.143Z,1.60
2022-09-28T05:03:09.582Z,1.60
2022-09-28T05:06:02.763Z,1.10
2022-09-28T05:08:39.903Z,1.13
2022-09-28T05:11:11.536Z,1.27
2022-09-28T05:13:45.462Z,1.70
2022-09-28T05:16:16.228Z,1.97
2022-09-28T05:19:15.912Z,1.40
2022-09-28T05:21:46.943Z,1.43
2022-09-28T05:24:14.336Z,1.70
2022-09-28T05:26:44.843Z,1.70
2022-09-28T05:29:12.089Z,1.27
2022-09-28T05:31:57.584Z,1.60
2022-09-28T05:34:31.253Z,1.20
2022-09-28T05:36:58.388Z,1.50
2022-09-28T05:39:25.443Z,4.07
2022-09-28T05:41:52.662Z,2.73
2022-09-28T05:44:19.825Z,2.03
2022-09-28T05:46:49.464Z,1.30
2022-09-28T05:49:17.617Z,1.20
2022-09-28T05:51:44.711Z,1.80
2022-09-28T05:54:11.920Z,1.30
2022-09-28T05:56:42.562Z,1.63
2022-09-28T05:59:09.713Z,1.67
2022-09-28T06:01:37.561Z,2.23
2022-09-28T06:04:09.037Z,3.73
2022-09-28T06:06:38.483Z,3.20
2022-09-28T06:09:05.840Z,1.93
2022-09-28T06:11:33.351Z,2.07
2022-09-28T06:14:06.367Z,2.73
2022-09-28T06:16:35.023Z,2.50
2022-09-28T06:19:02.368Z,2.90
2022-09-28T06:22:08.335Z,3.30
2022-09-28T06:24:44.047Z,3.60
2022-09-28T06:27:11.127Z,3.90
2022-09-28T06:29:38.175Z,4.30
2022-09-28T06:32:07.457Z,5.00
2022-09-28T06:34:36.485Z,4.70
2022-09-28T06:37:04.733Z,4.93
2022-09-28T06:39:32.590Z,5.20
2022-09-28T06:42:03.293Z,5.73
2022-09-28T06:44:50.472Z,5.70
2022-09-28T06:47:41.930Z,7.30
2022-09-28T06:50:17.107Z,5.67
2022-09-28T06:53:10.919Z,4.90
2022-09-28T06:55:56.892Z,5.20
2022-09-28T06:58:24.435Z,6.23
2022-09-28T07:00:52.466Z,5.83
2022-09-28T07:03:22.349Z,7.10
2022-09-28T07:06:02.116Z,7.27
2022-09-28T07:08:56.193Z,6.20
2022-09-28T07:11:53.607Z,7.00
2022-09-28T07:14:47.466Z,7.23
2022-09-28T07:17:16.357Z,7.93
2022-09-28T07:19:44.581Z,7.90
2022-09-28T07:22:18.501Z,9.00
2022-09-28T07:24:48.392Z,8.93
2022-09-28T07:27:37.102Z,8.77
2022-09-28T07:30:27.344Z,7.70
2022-09-28T07:33:02.602Z,8.00
2022-09-28T07:35:38.971Z,8.30
2022-09-28T07:38:08.186Z,8.07
2022-09-28T07:40:55.700Z,8.27
2022-09-28T07:43:22.981Z,8.20
2022-09-28T07:45:56.890Z,9.67
2022-09-28T07:48:24.143Z,8.43
2022-09-28T07:51:10.476Z,7.83
2022-09-28T07:53:44.784Z,7.57
2022-09-28T07:56:35.056Z,7.80
2022-09-28T07:59:13.794Z,8.47
2022-09-28T08:01:59.677Z,10.83
2022-09-28T08:04:28.389Z,10.30
2022-09-28T08:06:56.331Z,8.93
2022-09-28T08:09:23.554Z,9.37
2022-09-28T08:12:09.218Z,8.50
2022-09-28T08:14:55.693Z,7.90
2022-09-28T08:17:51.814Z,10.10
2022-09-28T08:20:39.850Z,7.90
2022-09-28T08:23:09.240Z,6.87
2022-09-28T08:25:38.330Z,7.70
2022-09-28T08:28:07.320Z,7.37
2022-09-28T08:30:40.861Z,6.50
2022-09-28T08:33:26.314Z,8.13
2022-09-28T08:36:11.842Z,4.97
2022-09-28T08:38:58.814Z,6.70
2022-09-28T08:42:12.461Z,4.90
2022-09-28T08:45:14.781Z,5.73
2022-09-28T08:48:36.646Z,5.00
2022-09-28T08:51:39.603Z,3.70
2022-09-28T08:54:51.862Z,4.67
2022-09-28T08:57:30.765Z,3.40
2022-09-28T09:00:00.256Z,2.67
2022-09-28T09:02:37.998Z,1.83
2022-09-28T09:05:24.382Z,1.60
2022-09-28T09:08:45.230Z,1.00
2022-09-28T09:11:58.323Z,1.40
2022-09-28T09:15:07.765Z,1.37
2022-09-28T09:17:58.761Z,1.60
2022-09-28T09:20:36.886Z,1.50
2022-09-28T09:23:56.726Z,2.27
2022-09-28T09:26:39.149Z,2.43
2022-09-28T09:29:34.877Z,1.77
2022-09-28T09:32:20.609Z,1.77
2022-09-28T09:35:39.102Z,1.53
2022-09-28T09:39:08.570Z,1.77
2022-09-28T09:42:45.703Z,1.70
2022-09-28T09:45:47.515Z,1.93
2022-09-28T09:49:10.043Z,1.33
2022-09-28T09:52:05.138Z,1.30
2022-09-28T09:54:39.669Z,1.37
2022-09-28T09:57:27.066Z,2.33
2022-09-28T10:00:04.265Z,0.90
2022-09-28T10:03:00.589Z,1.27
2022-09-28T10:05:39.211Z,1.20
2022-09-28T10:08:09.254Z,1.17
2022-09-28T10:10:49.123Z,1.40
2022-09-28T10:13:18.264Z,1.20
2022-09-28T10:15:48.058Z,1.00
2022-09-28T10:18:30.051Z,1.10
2022-09-28T10:21:18.935Z,0.90
2022-09-28T10:23:56.367Z,1.40
2022-09-28T10:26:32.651Z,1.20
2022-09-28T10:29:04.661Z,1.00
2022-09-28T10:31:54.081Z,0.93
2022-09-28T10:34:29.592Z,0.80
2022-09-28T10:37:11.654Z,1.20
2022-09-28T10:39:58.225Z,1.20
2022-09-28T10:42:32.441Z,1.40
2022-09-28T10:45:23.289Z,1.30
2022-09-28T10:47:51.148Z,1.27
2022-09-28T10:50:26.688Z,1.73
2022-09-28T10:53:20.650Z,1.30
2022-09-28T10:56:23.228Z,1.50
2022-09-28T10:59:25.087Z,1.60
2022-09-28T11:02:24.731Z,1.70
2022-09-28T11:04:59.693Z,1.47
2022-09-28T11:07:32.979Z,1.53
2022-09-28T11:10:02.092Z,1.47
2022-09-28T11:12:43.457Z,1.50
2022-09-28T11:15:18.899Z,1.73
2022-09-28T11:17:46.568Z,1.90
2022-09-28T11:20:28.333Z,1.90
2022-09-28T11:23:17.946Z,2.70
2022-09-28T11:26:03.031Z,2.13
2022-09-28T11:28:33.675Z,1.40
2022-09-28T11:31:08.291Z,1.50
2022-09-28T11:33:47.337Z,1.30
2022-09-28T11:37:16.497Z,1.63
2022-09-28T11:40:17.459Z,2.03
2022-09-28T11:42:53.617Z,1.83
2022-09-28T11:45:44.607Z,1.70
2022-09-28T11:48:22.282Z,2.23
2022-09-28T11:51:04.529Z,1.30
2022-09-28T11:54:00.142Z,1.47
2022-09-28T11:56:35.331Z,1.00
2022-09-28T11:59:16.245Z,0.67
2022-09-28T12:02:03.271Z,0.80
2022-09-28T12:05:20.006Z,0.90
2022-09-28T12:07:57.416Z,0.70
2022-09-28T12:11:15.720Z,0.60
2022-09-28T12:14:04.435Z,0.60
2022-09-28T12:17:07.711Z,0.70
2022-09-28T12:20:04.042Z,0.70
2022-09-28T12:23:00.266Z,0.80
2022-09-28T12:25:37.052Z,0.70
2022-09-28T12:28:14.155Z,0.80
2022-09-28T12:30:43.965Z,0.90
2022-09-28T12:33:15.462Z,0.70
2022-09-28T12:36:21.609Z,0.70
2022-09-28T12:39:24.038Z,0.70
2022-09-28T12:42:21.613Z,0.60
2022-09-28T12:45:27.207Z,0.80
2022-09-28T12:48:32.212Z,0.77
2022-09-28T12:51:37.995Z,0.70
2022-09-28T12:54:53.320Z,0.70
2022-09-28T12:57:44.639Z,0.63
2022-09-28T13:00:42.105Z,0.70
2022-09-28T13:03:45.935Z,0.60
2022-09-28T13:06:19.135Z,0.70
2022-09-28T13:09:04.657Z,0.60
2022-09-28T13:12:26.462Z,0.50
2022-09-28T13:15:41.302Z,0.50
2022-09-28T13:18:34.777Z,0.60
2022-09-28T13:21:17.273Z,0.70
2022-09-28T13:23:48.728Z,0.50
2022-09-28T13:26:42.257Z,0.63
2022-09-28T13:29:17.098Z,0.60
2022-09-28T13:31:59.982Z,0.80
2022-09-28T13:34:33.883Z,0.63
2022-09-28T13:37:21.867Z,0.60
2022-09-28T13:39:52.606Z,0.60
2022-09-28T13:42:46.141Z,0.70
2022-09-28T13:45:22.311Z,0.60
2022-09-28T13:47:52.519Z,0.60
2022-09-28T13:51:05.763Z,0.70
2022-09-28T13:54:16.725Z,0.57
2022-09-28T13:56:56.937Z,0.50
2022-09-28T13:59:28.325Z,0.50
2022-09-28T14:02:19.838Z,0.50
2022-09-28T14:04:59.344Z,0.50
2022-09-28T14:07:57.399Z,0.50
2022-09-28T14:11:18.028Z,0.70
2022-09-28T14:13:44.986Z,0.70
2022-09-28T14:16:18.334Z,0.63
2022-09-28T14:19:08.534Z,0.70
2022-09-28T14:22:03.155Z,0.80
2022-09-28T14:24:42.242Z,0.70
2022-09-28T14:27:37.218Z,0.83
2022-09-28T14:30:19.444Z,1.00
2022-09-28T14:32:58.716Z,0.80
2022-09-28T14:35:41.144Z,0.77
2022-09-28T14:38:37.232Z,0.60
2022-09-28T14:41:18.088Z,0.70
2022-09-28T14:43:45.091Z,0.60
2022-09-28T14:46:15.290Z,0.73
2022-09-28T14:49:01.683Z,0.57
2022-09-28T14:51:31.342Z,0.70
2022-09-28T14:54:04.173Z,0.70
2022-09-28T14:56:57.130Z,0.70
2022-09-28T14:59:30.707Z,0.63
2022-09-28T15:02:11.374Z,0.60
2022-09-28T15:04:43.819Z,0.70
2022-09-28T15:07:34.236Z,0.80
2022-09-28T15:10:07.174Z,0.60
2022-09-28T15:12:35.050Z,0.77
2022-09-28T15:15:05.757Z,1.00
2022-09-28T15:17:40.237Z,0.60
2022-09-28T15:20:31.040Z,0.70
2022-09-28T15:23:00.197Z,0.60
2022-09-28T15:25:31.732Z,0.60
2022-09-28T15:28:18.494Z,0.80
2022-09-28T15:30:45.780Z,0.70
2022-09-28T15:34:00.890Z,0.80
2022-09-28T15:36:33.681Z,0.70
2022-09-28T15:39:19.136Z,0.80
2022-09-28T15:41:47.964Z,1.00
2022-09-28T15:44:29.422Z,1.30
2022-09-28T15:47:32.880Z,0.80
2022-09-28T15:50:26.957Z,0.90
2022-09-28T15:53:05.887Z,1.30
2022-09-28T15:55:37.612Z,1.23
2022-09-28T15:58:15.783Z,1.10
2022-09-28T16:00:45.160Z,1.20
2022-09-28T16:03:12.198Z,1.20
2022-09-28T16:06:06.844Z,1.23
2022-09-28T16:08:36.797Z,1.40
2022-09-28T16:11:31.846Z,1.43
2022-09-28T16:14:18.313Z,1.60
2022-09-28T16:16:52.523Z,1.43
2022-09-28T16:19:38.098Z,1.50
2022-09-28T16:22:24.388Z,1.70
2022-09-28T16:24:57.987Z,1.10
2022-09-28T16:27:42.806Z,1.40
2022-09-28T16:30:24.264Z,1.00
2022-09-28T16:33:05.697Z,1.20
2022-09-28T16:35:53.365Z,2.00
2022-09-28T16:38:20.849Z,1.77
2022-09-28T16:40:54.707Z,1.63
2022-09-28T16:43:28.969Z,1.77
2022-09-28T16:46:12.064Z,1.87
2022-09-28T16:48:50.993Z,2.00
2022-09-28T16:51:22.130Z,2.03
2022-09-28T16:54:07.999Z,5.03
2022-09-28T16:56:36.502Z,4.77
2022-09-28T16:59:04.717Z,2.90
2022-09-28T17:01:32.030Z,2.43
2022-09-28T17:03:59.245Z,2.40
2022-09-28T17:06:27.176Z,2.43
2022-09-28T17:08:59.399Z,2.00
2022-09-28T17:11:26.427Z,6.73
2022-09-28T17:13:59.062Z,9.10
2022-09-28T17:19:26.185Z,9.67
2022-09-28T17:21:54.025Z,5.90
2022-09-28T17:24:21.592Z,4.20
2022-09-28T17:26:51.288Z,6.20
2022-09-28T17:29:18.945Z,8.10
2022-09-28T17:31:47.274Z,6.07
2022-09-28T17:34:16.290Z,6.40
2022-09-28T17:36:45.027Z,6.03
2022-09-28T17:39:18.698Z,4.67
2022-09-28T17:41:47.753Z,4.10
2022-09-28T17:44:16.289Z,3.33
2022-09-28T17:46:49.664Z,7.17
2022-09-28T17:49:17.375Z,3.63
2022-09-28T17:51:44.490Z,9.63
2022-09-28T17:54:13.007Z,5.37
2022-09-28T17:56:40.173Z,5.50
2022-09-28T17:59:11.512Z,4.93
2022-09-28T18:01:40.248Z,6.27
2022-09-28T18:04:09.340Z,4.70
2022-09-28T18:06:37.418Z,3.17
2022-09-28T18:09:09.457Z,4.77
2022-09-28T18:11:44.485Z,3.30
2022-09-28T18:14:11.616Z,4.10
2022-09-28T18:16:38.882Z,8.53
2022-09-28T18:19:06.068Z,4.57
2022-09-28T18:21:33.210Z,4.80
2022-09-28T18:24:00.480Z,4.03
2022-09-28T18:26:27.587Z,4.97
2022-09-28T18:28:55.364Z,6.87
2022-09-28T18:31:22.706Z,7.40
2022-09-28T18:33:49.995Z,7.40
2022-09-28T18:36:17.142Z,4.80
2022-09-28T18:38:44.225Z,5.67
2022-09-28T18:41:17.563Z,6.10
2022-09-28T18:43:51.663Z,5.27
2022-09-28T18:46:19.494Z,6.10
2022-09-28T18:48:47.758Z,5.10
2022-09-28T18:51:14.953Z,6.17
2022-09-28T18:53:42.423Z,8.00
2022-09-28T18:56:13.408Z,10.80
2022-09-28T18:58:42.253Z,7.30
2022-09-28T19:01:31.586Z,6.97
2022-09-28T19:04:06.506Z,6.13
2022-09-28T19:06:37.769Z,6.07
2022-09-28T19:09:04.964Z,5.60
2022-09-28T19:11:32.475Z,6.50
2022-09-28T19:13:59.600Z,5.70
2022-09-28T19:16:29.262Z,6.80
2022-09-28T19:18:58.513Z,6.83
2022-09-28T19:21:26.776Z,9.27
2022-09-28T19:23:55.455Z,8.73
2022-09-28T19:26:28.270Z,9.77
2022-09-28T19:28:59.333Z,8.10
2022-09-28T19:31:28.892Z,7.70
2022-09-28T19:33:56.033Z,5.90
2022-09-28T19:36:25.844Z,6.43
2022-09-28T19:38:53.552Z,6.00
2022-09-28T19:41:43.967Z,4.67
2022-09-28T19:44:38.312Z,5.33
2022-09-28T19:47:08.794Z,4.30
2022-09-28T19:49:40.715Z,5.57
2022-09-28T19:52:16.533Z,4.83
2022-09-28T19:54:59.208Z,3.57
2022-09-28T19:57:32.542Z,4.33
2022-09-28T20:00:03.526Z,4.20
2022-09-28T20:02:34.994Z,3.83
2022-09-28T20:05:02.719Z,4.60
2022-09-28T20:07:32.938Z,4.77
2022-09-28T20:10:00.236Z,4.40
2022-09-28T20:12:27.308Z,4.87
2022-09-28T20:14:54.460Z,4.60
2022-09-28T20:17:21.843Z,5.00
2022-09-28T20:19:51.675Z,5.40
2022-09-28T20:22:19.859Z,4.30
2022-09-28T20:24:47.062Z,5.07
2022-09-28T20:27:14.074Z,4.93
2022-09-28T20:29:43.018Z,6.70
2022-09-28T20:32:11.590Z,5.90
2022-09-28T20:34:38.665Z,7.07
2022-09-28T20:37:05.724Z,6.30
2022-09-28T20:39:33.026Z,6.50
2022-09-28T20:42:00.048Z,5.90
2022-09-28T20:44:27.099Z,6.57
2022-09-28T20:46:54.378Z,7.13
2022-09-28T20:49:21.694Z,6.20
2022-09-28T20:51:48.762Z,6.03
2022-09-28T20:54:16.058Z,4.60
2022-09-28T20:56:43.159Z,5.67
2022-09-28T20:59:12.848Z,5.20
2022-09-28T21:01:40.887Z,5.00
2022-09-28T21:04:10.328Z,5.30
2022-09-28T21:06:41.045Z,5.27
2022-09-28T21:09:10.514Z,4.83
2022-09-28T21:11:38.898Z,5.80
2022-09-28T21:14:08.140Z,6.53
2022-09-28T21:16:35.899Z,6.03
2022-09-28T21:19:03.645Z,5.20
2022-09-28T21:21:31.358Z,5.40
2022-09-28T21:23:59.233Z,4.43
2022-09-28T21:26:29.380Z,4.40
2022-09-28T21:28:59.281Z,4.40
2022-09-28T21:31:30.577Z,3.53
2022-09-28T21:33:58.970Z,4.00
2022-09-28T21:36:26.172Z,3.10
2022-09-28T21:38:56.157Z,4.20
2022-09-28T21:41:24.558Z,3.73
2022-09-28T21:43:52.122Z,3.07
2022-09-28T21:46:19.381Z,3.87
2022-09-28T21:48:46.564Z,3.53
2022-09-28T21:51:15.120Z,4.10
2022-09-28T21:53:42.849Z,4.10
2022-09-28T21:56:12.590Z,5.10
2022-09-28T21:58:40.223Z,4.80
2022-09-28T22:01:16.550Z,5.60
2022-09-28T22:03:46.818Z,4.60
2022-09-28T22:06:17.081Z,5.60
2022-09-28T22:08:45.498Z,5.50
2022-09-28T22:11:20.316Z,5.00
2022-09-28T22:13:55.451Z,4.33
2022-09-28T22:16:25.642Z,5.20
2022-09-28T22:18:53.465Z,6.10
2022-09-28T22:21:27.758Z,5.20
2022-09-28T22:24:01.227Z,5.57
2022-09-28T22:26:31.681Z,5.70
2022-09-28T22:29:02.354Z,5.50
2022-09-28T22:31:36.981Z,5.37
2022-09-28T22:34:05.029Z,5.60
2022-09-28T22:36:32.495Z,6.07
2022-09-28T22:39:00.891Z,7.90
2022-09-28T22:41:28.332Z,7.57
2022-09-28T22:43:56.174Z,9.03
2022-09-28T22:46:26.749Z,8.70
2022-09-28T22:48:57.015Z,8.60
2022-09-28T22:51:26.445Z,8.77
2022-09-28T22:53:53.537Z,7.70
2022-09-28T22:56:20.821Z,7.87
2022-09-28T22:58:48.145Z,7.33
2022-09-28T23:01:24.718Z,8.47
2022-09-28T23:03:53.757Z,7.53
2022-09-28T23:06:24.401Z,7.77
2022-09-28T23:08:52.876Z,8.47
2022-09-28T23:11:20.529Z,9.30
2022-09-28T23:13:56.106Z,8.70
2022-09-28T23:16:25.719Z,7.93
2022-09-28T23:18:55.163Z,7.10
2022-09-28T23:21:25.733Z,7.23
2022-09-28T23:24:03.498Z,7.63
2022-09-28T23:26:33.174Z,7.67
2022-09-28T23:29:00.679Z,9.50
2022-09-28T23:31:32.964Z,7.73
2022-09-28T23:34:02.990Z,7.80
2022-09-28T23:36:30.795Z,7.03
2022-09-28T23:38:58.016Z,7.50
2022-09-28T23:41:25.196Z,6.67
2022-09-28T23:43:52.238Z,6.63
2022-09-28T23:46:21.058Z,7.40
2022-09-28T23:48:49.521Z,7.83
2022-09-28T23:51:17.222Z,6.70
2022-09-28T23:53:44.667Z,6.73
2022-09-28T23:56:12.467Z,7.43
2022-09-28T23:58:39.516Z,7.03
